createdAt,value
2022-11-24T00:00:55.271Z,14.10
2022-11-24T00:01:55.298Z,8.50
2022-11-24T00:02:55.380Z,9.90
2022-11-24T00:03:55.247Z,8.10
2022-11-24T00:04:55.227Z,12.30
2022-11-24T00:05:55.226Z,10.10
2022-11-24T00:06:55.215Z,9.80
2022-11-24T00:07:55.264Z,10.10
2022-11-24T00:08:55.184Z,12.20
2022-11-24T00:09:55.171Z,11.50
2022-11-24T00:10:55.166Z,13.20
2022-11-24T00:11:55.166Z,10.20
2022-11-24T00:12:55.143Z,12.60
2022-11-24T00:13:55.134Z,15.20
2022-11-24T00:14:55.124Z,15.90
2022-11-24T00:15:55.109Z,13.10
2022-11-24T00:16:55.166Z,9.30
2022-11-24T00:17:55.113Z,12.50
2022-11-24T00:18:55.080Z,14.20
2022-11-24T00:19:55.063Z,10.40
2022-11-24T00:20:55.056Z,9.00
2022-11-24T00:21:55.051Z,11.60
2022-11-24T00:22:55.038Z,10.70
2022-11-24T00:23:55.016Z,9.60
2022-11-24T00:24:55.011Z,11.10
2022-11-24T00:25:55.005Z,10.00
2022-11-24T00:26:54.992Z,11.00
2022-11-24T00:27:54.977Z,13.60
2022-11-24T00:28:54.960Z,11.80
2022-11-24T00:29:54.955Z,11.40
2022-11-24T00:30:54.973Z,13.50
2022-11-24T00:31:54.947Z,13.50
2022-11-24T00:32:54.919Z,15.10
2022-11-24T00:33:54.923Z,8.30
2022-11-24T00:34:54.895Z,15.10
2022-11-24T00:35:54.888Z,15.10
2022-11-24T00:36:54.908Z,13.90
2022-11-24T00:37:54.869Z,10.90
2022-11-24T00:38:54.863Z,11.20
2022-11-24T00:39:54.846Z,13.10
2022-11-24T00:40:54.835Z,9.50
2022-11-24T00:41:54.827Z,12.50
2022-11-24T00:42:54.816Z,11.60
2022-11-24T00:43:54.812Z,10.10
2022-11-24T00:44:54.784Z,13.50
2022-11-24T00:45:54.979Z,12.60
2022-11-24T00:46:54.872Z,12.20
2022-11-24T00:47:54.781Z,12.80
2022-11-24T00:48:54.745Z,12.80
2022-11-24T00:49:54.735Z,19.20
2022-11-24T00:50:54.719Z,11.30
2022-11-24T00:51:54.718Z,17.80
2022-11-24T00:52:54.710Z,15.80
2022-11-24T00:53:54.694Z,13.60
2022-11-24T00:54:54.674Z,13.70
2022-11-24T00:55:54.668Z,11.10
2022-11-24T00:56:54.657Z,14.60
2022-11-24T00:57:54.670Z,13.60
2022-11-24T00:58:54.632Z,15.40
2022-11-24T00:59:54.624Z,12.10
2022-11-24T01:00:54.612Z,12.90
2022-11-24T01:01:54.672Z,15.70
2022-11-24T01:02:54.679Z,17.40
2022-11-24T01:03:54.581Z,14.80
2022-11-24T01:04:54.572Z,12.00
2022-11-24T01:05:54.560Z,11.50
2022-11-24T01:06:54.546Z,13.50
2022-11-24T01:07:54.650Z,14.80
2022-11-24T01:08:54.533Z,17.10
2022-11-24T01:09:54.514Z,15.20
2022-11-24T01:10:54.501Z,17.20
2022-11-24T01:11:54.522Z,15.00
2022-11-24T01:12:54.487Z,18.20
2022-11-24T01:13:54.469Z,14.00
2022-11-24T01:14:54.454Z,16.10
2022-11-24T01:15:54.505Z,18.90
2022-11-24T01:16:54.437Z,14.40
2022-11-24T01:17:54.441Z,15.50
2022-11-24T01:18:54.410Z,16.20
2022-11-24T01:19:54.404Z,21.40
2022-11-24T01:20:54.388Z,14.50
2022-11-24T01:21:54.386Z,18.40
2022-11-24T01:22:54.374Z,17.20
2022-11-24T01:23:54.358Z,19.60
2022-11-24T01:24:54.345Z,16.70
2022-11-24T01:25:54.338Z,18.10
2022-11-24T01:26:54.326Z,16.10
2022-11-24T01:27:54.327Z,18.70
2022-11-24T01:28:54.301Z,18.30
2022-11-24T01:29:54.295Z,14.80
2022-11-24T01:30:54.311Z,13.10
2022-11-24T01:31:54.271Z,9.80
2022-11-24T01:32:54.269Z,18.00
2022-11-24T01:33:54.252Z,14.70
2022-11-24T01:34:54.237Z,12.90
2022-11-24T01:35:54.229Z,15.60
2022-11-24T01:36:54.211Z,16.80
2022-11-24T01:37:54.227Z,16.00
2022-11-24T01:38:54.192Z,14.30
2022-11-24T01:39:54.183Z,16.70
2022-11-24T01:40:54.171Z,16.90
2022-11-24T01:41:54.164Z,20.10
2022-11-24T01:42:54.150Z,14.30
2022-11-24T01:43:54.153Z,17.70
2022-11-24T01:44:54.122Z,13.40
2022-11-24T01:45:54.184Z,13.30
2022-11-24T01:46:54.100Z,12.70
2022-11-24T01:47:54.092Z,15.60
2022-11-24T01:48:54.095Z,13.40
2022-11-24T01:49:54.076Z,15.10
2022-11-24T01:50:54.058Z,13.40
2022-11-24T01:51:54.051Z,18.90
2022-11-24T01:52:54.033Z,12.10
2022-11-24T01:53:54.038Z,12.20
2022-11-24T01:54:54.011Z,14.70
2022-11-24T01:55:54.017Z,15.40
2022-11-24T01:56:53.990Z,15.50
2022-11-24T01:57:53.983Z,15.30
2022-11-24T01:58:53.977Z,18.90
2022-11-24T01:59:53.961Z,14.10
2022-11-24T02:00:53.945Z,17.20
2022-11-24T02:01:53.989Z,16.10
2022-11-24T02:02:53.967Z,11.10
2022-11-24T02:03:53.930Z,12.10
2022-11-24T02:04:53.902Z,12.70
2022-11-24T02:05:53.896Z,12.90
2022-11-24T02:06:53.878Z,16.20
2022-11-24T02:07:53.966Z,18.60
2022-11-24T02:08:53.867Z,14.40
2022-11-24T02:09:53.851Z,17.20
2022-11-24T02:10:53.839Z,13.30
2022-11-24T02:11:53.831Z,10.90
2022-11-24T02:12:53.815Z,16.50
2022-11-24T02:13:53.816Z,11.20
2022-11-24T02:14:53.791Z,15.40
2022-11-24T02:15:53.794Z,15.30
2022-11-24T02:16:53.770Z,20.10
2022-11-24T02:17:53.761Z,14.90
2022-11-24T02:18:53.770Z,12.00
2022-11-24T02:19:53.741Z,18.50
2022-11-24T02:20:53.726Z,13.10
2022-11-24T02:21:53.734Z,18.30
2022-11-24T02:22:53.705Z,17.90
2022-11-24T02:23:53.707Z,17.10
2022-11-24T02:24:53.682Z,14.50
2022-11-24T02:25:53.674Z,14.90
2022-11-24T02:26:53.659Z,11.00
2022-11-24T02:27:54.284Z,14.40
2022-11-24T02:28:53.647Z,12.40
2022-11-24T02:29:53.633Z,14.10
2022-11-24T02:30:53.685Z,15.30
2022-11-24T02:31:53.615Z,11.60
2022-11-24T02:32:53.594Z,14.20
2022-11-24T02:33:53.602Z,15.40
2022-11-24T02:34:53.577Z,12.80
2022-11-24T02:35:53.568Z,18.80
2022-11-24T02:36:53.552Z,17.10
2022-11-24T02:37:53.553Z,12.10
2022-11-24T02:38:53.539Z,18.00
2022-11-24T02:39:53.522Z,16.90
2022-11-24T02:40:53.510Z,12.00
2022-11-24T02:41:53.500Z,15.40
2022-11-24T02:42:53.487Z,16.50
2022-11-24T02:43:53.494Z,17.30
2022-11-24T02:44:53.465Z,12.50
2022-11-24T02:45:53.530Z,12.00
2022-11-24T02:46:53.460Z,12.90
2022-11-24T02:47:53.437Z,14.60
2022-11-24T02:48:53.443Z,14.40
2022-11-24T02:49:53.411Z,14.60
2022-11-24T02:50:53.396Z,11.60
2022-11-24T02:51:53.388Z,14.70
2022-11-24T02:52:53.481Z,10.90
2022-11-24T02:53:53.384Z,14.60
2022-11-24T02:54:53.355Z,12.90
2022-11-24T02:55:53.354Z,15.00
2022-11-24T02:56:53.330Z,18.70
2022-11-24T02:57:53.324Z,13.30
2022-11-24T02:58:53.330Z,11.10
2022-11-24T02:59:53.308Z,13.70
2022-11-24T03:00:53.288Z,12.50
2022-11-24T03:01:53.365Z,15.80
2022-11-24T03:02:53.314Z,12.50
2022-11-24T03:03:53.266Z,16.10
2022-11-24T03:04:53.305Z,10.80
2022-11-24T03:05:53.243Z,17.60
2022-11-24T03:06:53.234Z,12.10
2022-11-24T03:07:53.316Z,13.10
2022-11-24T03:08:53.211Z,19.20
2022-11-24T03:09:53.185Z,13.00
2022-11-24T03:10:53.180Z,14.10
2022-11-24T03:11:53.186Z,13.90
2022-11-24T03:12:53.174Z,13.60
2022-11-24T03:13:53.160Z,16.50
2022-11-24T03:14:53.148Z,17.00
2022-11-24T03:15:53.156Z,12.90
2022-11-24T03:16:53.239Z,14.30
2022-11-24T03:17:53.100Z,14.70
2022-11-24T03:18:53.099Z,15.90
2022-11-24T03:19:53.090Z,10.90
2022-11-24T03:20:53.078Z,16.20
2022-11-24T03:21:53.068Z,12.20
2022-11-24T03:22:53.052Z,14.90
2022-11-24T03:23:53.036Z,13.20
2022-11-24T03:24:53.041Z,10.10
2022-11-24T03:25:53.013Z,11.80
2022-11-24T03:26:53.031Z,13.00
2022-11-24T03:27:52.993Z,16.30
2022-11-24T03:28:52.987Z,14.80
2022-11-24T03:29:52.985Z,12.80
2022-11-24T03:30:53.016Z,18.40
2022-11-24T03:31:53.039Z,16.80
2022-11-24T03:32:53.036Z,13.10
2022-11-24T03:33:52.927Z,14.50
2022-11-24T03:34:52.930Z,15.90
2022-11-24T03:35:52.915Z,15.00
2022-11-24T03:36:52.899Z,10.90
2022-11-24T03:37:52.885Z,12.40
2022-11-24T03:38:52.876Z,16.50
2022-11-24T03:39:52.878Z,12.00
2022-11-24T03:40:52.855Z,13.20
2022-11-24T03:41:52.867Z,18.00
2022-11-24T03:42:52.836Z,13.80
2022-11-24T03:43:52.817Z,16.00
2022-11-24T03:44:52.824Z,12.90
2022-11-24T03:45:52.796Z,8.30
2022-11-24T03:46:52.792Z,10.00
2022-11-24T03:47:52.774Z,19.00
2022-11-24T03:48:52.772Z,12.70
2022-11-24T03:49:52.763Z,11.20
2022-11-24T03:50:52.748Z,14.10
2022-11-24T03:51:52.731Z,17.50
2022-11-24T03:52:52.723Z,10.80
2022-11-24T03:53:52.713Z,13.90
2022-11-24T03:54:52.715Z,11.10
2022-11-24T03:55:52.686Z,9.50
2022-11-24T03:56:52.681Z,13.80
2022-11-24T03:57:52.669Z,10.10
2022-11-24T03:58:52.661Z,11.20
2022-11-24T03:59:52.653Z,13.20
2022-11-24T04:00:52.638Z,11.80
2022-11-24T04:01:52.673Z,16.70
2022-11-24T04:02:52.718Z,16.10
2022-11-24T04:03:52.599Z,15.60
2022-11-24T04:04:52.625Z,12.00
2022-11-24T04:05:52.576Z,12.80
2022-11-24T04:06:52.572Z,13.20
2022-11-24T04:07:52.639Z,13.40
2022-11-24T04:08:52.551Z,11.40
2022-11-24T04:09:52.536Z,13.00
2022-11-24T04:10:52.539Z,12.60
2022-11-24T04:11:52.511Z,12.50
2022-11-24T04:12:52.506Z,15.90
2022-11-24T04:13:52.490Z,15.80
2022-11-24T04:14:52.482Z,16.00
2022-11-24T04:15:52.556Z,14.50
2022-11-24T04:16:52.463Z,15.30
2022-11-24T04:17:52.449Z,16.50
2022-11-24T04:18:52.439Z,11.70
2022-11-24T04:19:52.424Z,10.40
2022-11-24T04:20:52.433Z,12.00
2022-11-24T04:21:52.402Z,13.40
2022-11-24T04:22:52.397Z,13.60
2022-11-24T04:23:52.382Z,13.30
2022-11-24T04:24:52.375Z,11.60
2022-11-24T04:25:52.369Z,12.40
2022-11-24T04:26:52.359Z,14.40
2022-11-24T04:27:52.336Z,10.00
2022-11-24T04:28:52.329Z,12.90
2022-11-24T04:29:52.316Z,12.80
2022-11-24T04:30:52.358Z,15.50
2022-11-24T04:31:52.328Z,12.60
2022-11-24T04:32:52.287Z,12.50
2022-11-24T04:33:52.273Z,8.70
2022-11-24T04:34:52.265Z,13.30
2022-11-24T04:35:52.260Z,16.20
2022-11-24T04:36:52.247Z,9.70
2022-11-24T04:37:52.229Z,11.90
2022-11-24T04:39:24.292Z,14.40
2022-11-24T04:39:52.258Z,10.50
2022-11-24T04:40:52.219Z,10.60
2022-11-24T04:41:52.192Z,11.20
2022-11-24T04:42:52.173Z,16.20
2022-11-24T04:43:52.169Z,11.20
2022-11-24T04:44:52.155Z,12.40
2022-11-24T04:45:52.155Z,15.70
2022-11-24T04:46:52.183Z,11.40
2022-11-24T04:47:52.188Z,13.50
2022-11-24T04:48:52.124Z,16.60
2022-11-24T04:49:52.101Z,15.10
2022-11-24T04:50:52.097Z,16.50
2022-11-24T04:51:52.082Z,17.30
2022-11-24T04:52:52.065Z,16.50
2022-11-24T04:53:52.059Z,15.70
2022-11-24T04:54:52.045Z,12.50
2022-11-24T04:55:52.049Z,15.10
2022-11-24T04:56:52.036Z,13.10
2022-11-24T04:57:52.023Z,12.60
2022-11-24T04:58:51.999Z,17.70
2022-11-24T04:59:51.992Z,16.10
2022-11-24T05:00:52.001Z,15.60
2022-11-24T05:01:52.078Z,19.30
2022-11-24T05:02:51.954Z,12.10
2022-11-24T05:03:52.010Z,15.60
2022-11-24T05:04:51.934Z,19.10
2022-11-24T05:05:51.938Z,11.60
2022-11-24T05:06:51.913Z,13.70
2022-11-24T05:07:52.022Z,12.30
2022-11-24T05:08:51.891Z,13.20
2022-11-24T05:09:59.416Z,13.80
2022-11-24T05:10:51.895Z,16.30
2022-11-24T05:11:51.861Z,15.70
2022-11-24T05:12:51.856Z,16.50
2022-11-24T05:13:51.840Z,8.40
2022-11-24T05:14:51.826Z,13.10
2022-11-24T05:15:51.961Z,17.00
2022-11-24T05:16:51.809Z,14.80
2022-11-24T05:17:51.795Z,13.00
2022-11-24T05:18:51.790Z,14.90
2022-11-24T05:19:51.776Z,15.60
2022-11-24T05:20:51.774Z,14.40
2022-11-24T05:21:51.752Z,15.40
2022-11-24T05:22:51.755Z,12.40
2022-11-24T05:23:51.735Z,13.10
2022-11-24T05:24:51.717Z,13.90
2022-11-24T05:25:51.722Z,12.70
2022-11-24T05:26:51.693Z,16.70
2022-11-24T05:27:51.687Z,15.90
2022-11-24T05:28:51.672Z,14.60
2022-11-24T05:29:51.663Z,16.60
2022-11-24T05:30:51.660Z,12.20
2022-11-24T05:31:51.705Z,19.60
2022-11-24T05:32:51.630Z,11.10
2022-11-24T05:33:51.622Z,10.10
2022-11-24T05:34:51.609Z,10.50
2022-11-24T05:35:51.614Z,14.60
2022-11-24T05:36:51.586Z,13.50
2022-11-24T05:37:51.579Z,17.10
2022-11-24T05:38:51.563Z,17.10
2022-11-24T05:39:51.562Z,17.40
2022-11-24T05:40:51.551Z,12.00
2022-11-24T05:41:51.535Z,17.90
2022-11-24T05:42:51.524Z,14.60
2022-11-24T05:43:51.510Z,18.10
2022-11-24T05:44:51.501Z,14.80
2022-11-24T05:45:51.503Z,13.20
2022-11-24T05:46:51.502Z,19.60
2022-11-24T05:47:51.484Z,15.90
2022-11-24T05:48:51.454Z,17.50
2022-11-24T05:49:51.448Z,16.40
2022-11-24T05:50:51.445Z,13.30
2022-11-24T05:51:51.487Z,11.40
2022-11-24T05:52:51.409Z,16.80
2022-11-24T05:53:51.410Z,17.50
2022-11-24T05:54:51.391Z,13.50
2022-11-24T05:55:51.391Z,15.00
2022-11-24T05:56:51.371Z,14.70
2022-11-24T05:57:51.361Z,19.70
2022-11-24T05:58:51.344Z,13.30
2022-11-24T05:59:51.340Z,16.60
2022-11-24T06:00:51.331Z,16.10
2022-11-24T06:01:51.417Z,10.10
2022-11-24T06:02:51.389Z,17.40
2022-11-24T06:03:51.294Z,15.00
2022-11-24T06:04:51.280Z,16.10
2022-11-24T06:05:51.292Z,14.20
2022-11-24T06:06:51.256Z,13.70
2022-11-24T06:07:51.367Z,16.20
2022-11-24T06:08:51.235Z,13.40
2022-11-24T06:09:51.225Z,14.10
2022-11-24T06:10:51.230Z,16.20
2022-11-24T06:11:51.203Z,16.80
2022-11-24T06:12:51.195Z,14.60
2022-11-24T06:13:51.253Z,14.70
2022-11-24T06:14:51.172Z,12.40
2022-11-24T06:15:51.181Z,12.70
2022-11-24T06:16:51.217Z,9.90
2022-11-24T06:17:51.141Z,15.50
2022-11-24T06:18:51.130Z,18.40
2022-11-24T06:19:51.114Z,17.60
2022-11-24T06:21:09.506Z,20.10
2022-11-24T06:21:51.097Z,14.60
2022-11-24T06:22:51.083Z,16.20
2022-11-24T06:23:51.070Z,19.00
2022-11-24T06:24:51.063Z,16.90
2022-11-24T06:25:51.730Z,19.80
2022-11-24T06:26:51.041Z,16.10
2022-11-24T06:27:51.032Z,12.50
2022-11-24T06:28:51.020Z,13.10
2022-11-24T06:29:51.006Z,18.30
2022-11-24T06:30:51.002Z,17.50
2022-11-24T06:31:51.038Z,20.80
2022-11-24T06:32:50.975Z,14.90
2022-11-24T06:33:50.962Z,16.20
2022-11-24T06:34:50.953Z,12.40
2022-11-24T06:35:50.937Z,14.00
2022-11-24T06:36:50.941Z,14.00
2022-11-24T06:37:50.917Z,11.50
2022-11-24T06:38:50.907Z,16.20
2022-11-24T06:39:50.895Z,17.00
2022-11-24T06:40:50.887Z,15.90
2022-11-24T06:41:50.885Z,17.80
2022-11-24T06:42:50.865Z,19.20
2022-11-24T06:43:50.850Z,19.20
2022-11-24T06:44:50.842Z,16.30
2022-11-24T06:45:50.855Z,18.70
2022-11-24T06:46:50.837Z,15.20
2022-11-24T06:47:50.806Z,16.40
2022-11-24T06:48:50.798Z,13.30
2022-11-24T06:49:50.784Z,15.40
2022-11-24T06:50:50.776Z,19.20
2022-11-24T06:51:50.772Z,20.10
2022-11-24T06:52:50.756Z,17.50
2022-11-24T06:53:50.741Z,22.00
2022-11-24T06:54:50.735Z,15.60
2022-11-24T06:55:50.719Z,20.10
2022-11-24T06:56:50.728Z,15.10
2022-11-24T06:57:50.694Z,22.90
2022-11-24T06:58:50.688Z,21.00
2022-11-24T06:59:50.702Z,18.20
2022-11-24T07:00:50.707Z,22.60
2022-11-24T07:01:50.663Z,16.20
2022-11-24T07:02:50.693Z,19.00
2022-11-24T07:03:50.633Z,17.80
2022-11-24T07:04:50.623Z,16.60
2022-11-24T07:05:50.608Z,18.90
2022-11-24T07:06:50.613Z,20.70
2022-11-24T07:07:51.123Z,21.20
2022-11-24T07:08:50.577Z,18.60
2022-11-24T07:09:50.562Z,18.00
2022-11-24T07:10:50.560Z,16.60
2022-11-24T07:11:50.552Z,24.90
2022-11-24T07:12:50.539Z,19.60
2022-11-24T07:13:54.978Z,15.10
2022-11-24T07:14:50.524Z,13.20
2022-11-24T07:15:50.499Z,21.40
2022-11-24T07:16:50.539Z,17.80
2022-11-24T07:17:50.477Z,19.00
2022-11-24T07:18:50.481Z,18.80
2022-11-24T07:19:50.453Z,13.60
2022-11-24T07:20:50.448Z,18.60
2022-11-24T07:21:50.431Z,18.40
2022-11-24T07:22:50.425Z,20.20
2022-11-24T07:23:50.419Z,16.20
2022-11-24T07:24:50.402Z,17.30
2022-11-24T07:25:50.390Z,18.90
2022-11-24T07:26:50.380Z,21.70
2022-11-24T07:27:50.376Z,22.00
2022-11-24T07:28:50.367Z,11.40
2022-11-24T07:29:50.343Z,17.80
2022-11-24T07:30:50.355Z,16.90
2022-11-24T07:31:50.355Z,19.20
2022-11-24T07:32:50.316Z,15.40
2022-11-24T07:33:50.311Z,15.40
2022-11-24T07:34:50.293Z,19.80
2022-11-24T07:35:50.277Z,15.40
2022-11-24T07:36:50.271Z,16.50
2022-11-24T07:37:50.971Z,17.80
2022-11-24T07:38:50.340Z,13.30
2022-11-24T07:39:50.232Z,18.30
2022-11-24T07:40:50.226Z,13.50
2022-11-24T07:41:50.209Z,19.10
2022-11-24T07:42:50.203Z,17.40
2022-11-24T07:43:50.200Z,19.20
2022-11-24T07:44:50.185Z,19.90
2022-11-24T07:45:50.237Z,23.50
2022-11-24T07:46:50.160Z,19.30
2022-11-24T07:47:50.142Z,22.10
2022-11-24T07:48:50.151Z,20.80
2022-11-24T07:49:50.122Z,22.80
2022-11-24T07:50:55.460Z,18.40
2022-11-24T07:51:50.109Z,14.00
2022-11-24T07:52:50.096Z,17.30
2022-11-24T07:53:50.091Z,19.50
2022-11-24T07:54:50.072Z,18.70
2022-11-24T07:55:50.078Z,18.00
2022-11-24T07:56:50.060Z,21.50
2022-11-24T07:57:50.042Z,18.80
2022-11-24T07:58:52.995Z,20.80
2022-11-24T07:59:50.013Z,17.50
2022-11-24T08:00:50.004Z,15.90
2022-11-24T08:01:50.049Z,19.60
2022-11-24T08:02:49.984Z,16.90
2022-11-24T08:03:50.031Z,14.20
2022-11-24T08:04:49.960Z,15.10
2022-11-24T08:06:16.025Z,17.70
2022-11-24T08:06:49.960Z,18.90
2022-11-24T08:07:49.963Z,16.00
2022-11-24T08:08:49.926Z,16.90
2022-11-24T08:09:49.907Z,17.80
2022-11-24T08:10:49.915Z,20.50
2022-11-24T08:11:49.883Z,23.80
2022-11-24T08:12:49.882Z,22.70
2022-11-24T08:13:49.875Z,21.00
2022-11-24T08:14:49.853Z,19.90
2022-11-24T08:15:49.837Z,21.50
2022-11-24T08:16:49.889Z,16.80
2022-11-24T08:17:49.814Z,18.70
2022-11-24T08:18:49.822Z,23.70
2022-11-24T08:19:49.792Z,22.80
2022-11-24T08:20:49.789Z,20.80
2022-11-24T08:21:49.770Z,24.90
2022-11-24T08:22:49.764Z,20.50
2022-11-24T08:23:49.761Z,24.80
2022-11-24T08:24:49.744Z,21.90
2022-11-24T08:25:54.167Z,20.20
2022-11-24T08:26:49.726Z,23.70
2022-11-24T08:27:49.703Z,22.90
2022-11-24T08:28:49.710Z,25.10
2022-11-24T08:29:49.686Z,18.30
2022-11-24T08:30:49.676Z,24.90
2022-11-24T08:31:49.761Z,20.60
2022-11-24T08:32:49.653Z,19.60
2022-11-24T08:33:49.649Z,17.80
2022-11-24T08:34:49.634Z,23.80
2022-11-24T08:35:49.680Z,19.80
2022-11-24T08:36:49.609Z,18.40
2022-11-24T08:37:49.596Z,19.10
2022-11-24T08:38:49.600Z,17.30
2022-11-24T08:39:49.571Z,19.60
2022-11-24T08:40:49.568Z,17.00
2022-11-24T08:41:49.550Z,17.90
2022-11-24T08:42:49.544Z,16.70
2022-11-24T08:43:49.551Z,18.90
2022-11-24T08:44:49.522Z,20.60
2022-11-24T08:45:49.546Z,17.40
2022-11-24T08:46:49.506Z,18.60
2022-11-24T08:47:49.486Z,18.00
2022-11-24T08:48:51.101Z,19.40
2022-11-24T08:49:49.474Z,18.90
2022-11-24T08:50:49.456Z,17.80
2022-11-24T08:51:49.442Z,18.40
2022-11-24T08:52:49.436Z,15.40
2022-11-24T08:53:49.419Z,19.70
2022-11-24T08:54:49.426Z,20.20
2022-11-24T08:55:49.405Z,18.90
2022-11-24T08:56:49.388Z,13.90
2022-11-24T08:57:49.381Z,25.50
2022-11-24T08:58:50.129Z,13.40
2022-11-24T08:59:49.373Z,14.00
2022-11-24T09:00:49.343Z,15.60
2022-11-24T09:01:49.525Z,18.50
2022-11-24T09:02:49.324Z,15.20
2022-11-24T09:03:50.948Z,13.30
2022-11-24T09:04:49.352Z,16.40
2022-11-24T09:05:52.158Z,13.40
2022-11-24T09:06:49.280Z,19.80
2022-11-24T09:07:49.341Z,13.80
2022-11-24T09:08:50.059Z,15.00
2022-11-24T09:09:49.256Z,15.20
2022-11-24T09:10:49.241Z,11.90
2022-11-24T09:11:49.223Z,17.50
2022-11-24T09:12:49.222Z,14.20
2022-11-24T09:13:49.204Z,13.80
2022-11-24T09:14:49.217Z,18.30
2022-11-24T09:15:49.179Z,17.40
2022-11-24T09:16:49.242Z,19.40
2022-11-24T09:17:49.157Z,14.60
2022-11-24T09:18:49.775Z,12.60
2022-11-24T09:19:49.147Z,15.10
2022-11-24T09:20:49.130Z,12.10
2022-11-24T09:21:49.117Z,14.40
2022-11-24T09:22:49.108Z,15.30
2022-11-24T09:23:49.110Z,17.60
2022-11-24T09:24:49.106Z,13.50
2022-11-24T09:25:49.071Z,16.80
2022-11-24T09:26:49.070Z,14.50
2022-11-24T09:27:49.046Z,17.40
2022-11-24T09:28:49.069Z,14.80
2022-11-24T09:29:49.036Z,11.40
2022-11-24T09:30:49.052Z,12.80
2022-11-24T09:31:49.007Z,20.60
2022-11-24T09:32:48.997Z,18.80
2022-11-24T09:33:48.985Z,15.70
2022-11-24T09:34:48.983Z,13.20
2022-11-24T09:35:48.959Z,15.30
2022-11-24T09:36:48.955Z,15.70
2022-11-24T09:37:48.938Z,15.40
2022-11-24T09:38:48.930Z,13.70
2022-11-24T09:39:48.927Z,13.10
2022-11-24T09:40:48.910Z,15.50
2022-11-24T09:41:48.895Z,13.90
2022-11-24T09:42:53.356Z,14.30
2022-11-24T09:43:48.875Z,13.30
2022-11-24T09:44:48.876Z,14.60
2022-11-24T09:46:05.162Z,16.70
2022-11-24T09:46:48.883Z,15.00
2022-11-24T09:47:48.837Z,17.10
2022-11-24T09:48:48.824Z,15.60
2022-11-24T09:49:51.439Z,14.80
2022-11-24T09:50:48.799Z,15.60
2022-11-24T09:51:48.787Z,18.50
2022-11-24T09:52:48.778Z,14.30
2022-11-24T09:53:48.761Z,11.80
2022-11-24T09:54:48.775Z,15.40
2022-11-24T09:55:48.741Z,16.30
2022-11-24T09:56:48.736Z,15.50
2022-11-24T09:57:48.731Z,13.90
2022-11-24T09:58:48.840Z,17.30
2022-11-24T09:59:48.705Z,12.70
2022-11-24T10:00:48.689Z,16.80
2022-11-24T10:01:48.781Z,15.80
2022-11-24T10:02:48.672Z,15.60
2022-11-24T10:03:48.678Z,11.50
2022-11-24T10:04:48.718Z,25.40
2022-11-24T10:05:48.657Z,17.60
2022-11-24T10:06:48.628Z,14.80
2022-11-24T10:07:48.678Z,12.80
2022-11-24T10:08:48.719Z,12.10
2022-11-24T10:09:48.601Z,17.80
2022-11-24T10:10:48.592Z,20.30
2022-11-24T10:11:48.574Z,18.80
2022-11-24T10:12:48.560Z,12.50
2022-11-24T10:13:48.544Z,14.60
2022-11-24T10:14:48.549Z,11.50
2022-11-24T10:15:48.530Z,15.40
2022-11-24T10:16:48.969Z,15.50
2022-11-24T10:17:48.500Z,17.70
2022-11-24T10:18:49.181Z,13.10
2022-11-24T10:19:48.489Z,13.60
2022-11-24T10:20:48.523Z,16.30
2022-11-24T10:21:48.457Z,13.50
2022-11-24T10:22:48.448Z,11.80
2022-11-24T10:23:48.437Z,14.00
2022-11-24T10:24:48.427Z,13.20
2022-11-24T10:25:48.422Z,11.00
2022-11-24T10:26:48.451Z,14.20
2022-11-24T10:27:48.390Z,10.20
2022-11-24T10:28:48.382Z,12.40
2022-11-24T10:29:48.367Z,12.30
2022-11-24T10:30:48.396Z,12.40
2022-11-24T10:31:48.347Z,10.30
2022-11-24T10:32:48.345Z,13.10
2022-11-24T10:33:48.332Z,13.20
2022-11-24T10:34:48.317Z,12.60
2022-11-24T10:35:48.314Z,11.50
2022-11-24T10:36:48.293Z,10.70
2022-11-24T10:37:48.281Z,13.00
2022-11-24T10:38:48.274Z,10.50
2022-11-24T10:39:48.259Z,10.10
2022-11-24T10:40:56.983Z,10.60
2022-11-24T10:41:48.242Z,9.90
2022-11-24T10:42:48.240Z,11.40
2022-11-24T10:43:48.212Z,12.60
2022-11-24T10:44:48.207Z,13.00
2022-11-24T10:45:48.293Z,9.20
2022-11-24T10:46:48.251Z,9.40
2022-11-24T10:47:48.177Z,15.40
2022-11-24T10:48:49.679Z,11.20
2022-11-24T10:49:48.147Z,10.40
2022-11-24T10:50:48.154Z,9.00
2022-11-24T10:51:48.128Z,7.40
2022-11-24T10:52:48.121Z,14.20
2022-11-24T10:53:48.105Z,9.30
2022-11-24T10:54:48.099Z,9.10
2022-11-24T10:55:48.092Z,9.40
2022-11-24T10:56:48.079Z,9.60
2022-11-24T10:57:48.061Z,13.50
2022-11-24T10:58:48.289Z,8.50
2022-11-24T10:59:48.037Z,11.80
2022-11-24T11:00:48.041Z,9.70
2022-11-24T11:01:48.128Z,12.60
2022-11-24T11:02:48.098Z,9.20
2022-11-24T11:03:48.008Z,7.40
2022-11-24T11:04:48.082Z,9.20
2022-11-24T11:05:47.982Z,13.90
2022-11-24T11:06:47.972Z,8.00
2022-11-24T11:07:48.006Z,9.60
2022-11-24T11:08:48.746Z,10.90
2022-11-24T11:09:47.928Z,10.60
2022-11-24T11:10:47.933Z,7.70
2022-11-24T11:11:47.908Z,8.50
2022-11-24T11:12:47.931Z,8.80
2022-11-24T11:13:47.884Z,7.00
2022-11-24T11:14:47.878Z,10.90
2022-11-24T11:15:47.945Z,8.40
2022-11-24T11:16:47.858Z,9.50
2022-11-24T11:17:47.839Z,8.30
2022-11-24T11:18:47.834Z,12.40
2022-11-24T11:19:53.215Z,6.70
2022-11-24T11:20:47.830Z,9.10
2022-11-24T11:21:47.800Z,10.10
2022-11-24T11:22:47.792Z,9.20
2022-11-24T11:23:47.777Z,10.60
2022-11-24T11:24:47.772Z,7.10
2022-11-24T11:25:47.761Z,8.90
2022-11-24T11:26:47.745Z,8.20
2022-11-24T11:27:47.738Z,11.10
2022-11-24T11:28:48.410Z,8.90
2022-11-24T11:34:02.963Z,7.80
2022-11-24T11:34:14.466Z,6.50
2022-11-24T11:34:30.137Z,8.00
2022-11-24T11:35:18.350Z,9.80
2022-11-24T11:36:18.346Z,11.80
2022-11-24T11:37:18.331Z,6.50
2022-11-24T11:38:18.310Z,10.10
2022-11-24T11:39:18.303Z,8.60
2022-11-24T11:40:18.285Z,10.40
2022-11-24T11:41:18.286Z,7.80
2022-11-24T11:42:45.321Z,9.30
2022-11-24T11:43:18.263Z,10.00
2022-11-24T11:44:18.239Z,6.90
2022-11-24T11:45:18.311Z,9.80
2022-11-24T11:46:18.477Z,8.40
2022-11-24T11:47:18.212Z,6.10
2022-11-24T11:48:18.196Z,10.30
2022-11-24T11:49:18.197Z,8.90
2022-11-24T11:50:18.226Z,7.80
2022-11-24T11:51:25.579Z,7.70
2022-11-24T11:52:18.162Z,8.00
2022-11-24T11:53:18.146Z,10.70
2022-11-24T11:54:18.129Z,11.50
2022-11-24T11:55:18.120Z,7.90
2022-11-24T11:56:18.116Z,8.30
2022-11-24T11:57:18.155Z,7.50
2022-11-24T11:58:18.085Z,9.80
2022-11-24T11:59:18.077Z,9.50
2022-11-24T12:00:18.061Z,7.30
2022-11-24T12:01:18.077Z,9.40
2022-11-24T12:02:18.121Z,9.30
2022-11-24T12:03:18.107Z,12.00
2022-11-24T12:04:18.155Z,6.60
2022-11-24T12:05:18.138Z,9.20
2022-11-24T12:06:18.006Z,9.00
2022-11-24T12:07:18.017Z,6.60
2022-11-24T12:08:21.321Z,11.10
2022-11-24T12:09:20.707Z,8.70
2022-11-24T12:10:17.955Z,9.70
2022-11-24T12:11:17.967Z,9.20
2022-11-24T12:12:17.932Z,10.30
2022-11-24T12:13:17.922Z,6.90
2022-11-24T12:14:17.911Z,7.80
2022-11-24T12:15:17.896Z,9.90
2022-11-24T12:16:17.926Z,7.60
2022-11-24T12:17:17.882Z,7.60
2022-11-24T12:18:40.631Z,7.50
2022-11-24T12:19:17.861Z,10.50
2022-11-24T12:20:17.872Z,5.60
2022-11-24T12:21:22.853Z,9.40
2022-11-24T12:22:17.837Z,7.70
2022-11-24T12:23:17.809Z,6.70
2022-11-24T12:24:17.841Z,7.00
2022-11-24T12:25:17.787Z,7.60
2022-11-24T12:26:17.784Z,9.10
2022-11-24T12:27:22.549Z,9.30
2022-11-24T12:28:17.786Z,5.80
2022-11-24T12:29:17.741Z,8.70
2022-11-24T12:30:17.735Z,8.90
2022-11-24T12:31:17.751Z,6.90
2022-11-24T12:32:18.078Z,7.10
2022-11-24T12:33:17.701Z,8.80
2022-11-24T12:34:17.691Z,7.60
2022-11-24T12:35:17.675Z,6.60
2022-11-24T12:36:17.668Z,8.50
2022-11-24T12:37:17.663Z,8.70
2022-11-24T12:38:17.648Z,9.90
2022-11-24T12:39:17.659Z,7.30
2022-11-24T12:40:17.641Z,11.00
2022-11-24T12:41:40.502Z,7.90
2022-11-24T12:42:17.620Z,7.90
2022-11-24T12:43:17.589Z,10.40
2022-11-24T12:44:17.580Z,11.40
2022-11-24T12:45:17.563Z,7.30
2022-11-24T12:46:17.812Z,9.00
2022-11-24T12:47:17.554Z,9.30
2022-11-24T12:48:17.535Z,8.10
2022-11-24T12:49:17.523Z,7.10
2022-11-24T12:50:17.513Z,8.10
2022-11-24T12:51:17.496Z,9.10
2022-11-24T12:52:17.500Z,8.80
2022-11-24T12:53:17.477Z,10.20
2022-11-24T12:54:17.467Z,6.70
2022-11-24T12:55:17.453Z,10.00
2022-11-24T12:56:17.450Z,8.80
2022-11-24T12:57:17.439Z,8.80
2022-11-24T12:58:17.423Z,8.00
2022-11-24T12:59:17.410Z,7.10